sensor_id;sensor_type;location;lat;lon;timestamp;P1;durP1;ratioP1;P2;durP2;ratioP2
70951;SDS011;69214;55.880;37.542;2023-04-24T00:02:15;6.33;;;1.83;;
70951;SDS011;69214;55.880;37.542;2023-04-24T00:04:42;7.32;;;2.15;;
70951;SDS011;69214;55.880;37.542;2023-04-24T00:07:10;8.18;;;2.20;;
70951;SDS011;69214;55.880;37.542;2023-04-24T00:09:36;9.45;;;2.08;;
70951;SDS011;69214;55.880;37.542;2023-04-24T00:12:02;8.87;;;2.13;;
70951;SDS011;69214;55.880;37.542;2023-04-24T00:14:30;8.27;;;2.40;;
70951;SDS011;69214;55.880;37.542;2023-04-24T00:16:56;5.18;;;1.60;;
70951;SDS011;69214;55.880;37.542;2023-04-24T00:19:22;6.32;;;2.17;;
70951;SDS011;69214;55.880;37.542;2023-04-24T00:21:48;6.43;;;2.37;;
70951;SDS011;69214;55.880;37.542;2023-04-24T00:24:16;7.55;;;2.17;;
70951;SDS011;69214;55.880;37.542;2023-04-24T00:26:43;5.35;;;2.03;;
70951;SDS011;69214;55.880;37.542;2023-04-24T00:29:09;6.70;;;2.10;;
70951;SDS011;69214;55.880;37.542;2023-04-24T00:31:35;6.78;;;2.33;;
70951;SDS011;69214;55.880;37.542;2023-04-24T00:34:01;7.32;;;2.10;;
70951;SDS011;69214;55.880;37.542;2023-04-24T00:36:27;7.43;;;2.43;;
70951;SDS011;69214;55.880;37.542;2023-04-24T00:38:53;8.02;;;2.53;;
70951;SDS011;69214;55.880;37.542;2023-04-24T00:41:20;7.90;;;2.30;;
70951;SDS011;69214;55.880;37.542;2023-04-24T00:43:47;7.20;;;2.30;;
70951;SDS011;69214;55.880;37.542;2023-04-24T00:46:13;7.93;;;2.37;;
70951;SDS011;69214;55.880;37.542;2023-04-24T00:48:39;6.93;;;2.38;;
70951;SDS011;69214;55.880;37.542;2023-04-24T00:51:06;7.97;;;2.40;;
70951;SDS011;69214;55.880;37.542;2023-04-24T00:53:32;7.80;;;2.40;;
70951;SDS011;69214;55.880;37.542;2023-04-24T00:55:58;6.57;;;2.75;;
70951;SDS011;69214;55.880;37.542;2023-04-24T00:58:25;9.80;;;2.83;;
70951;SDS011;69214;55.880;37.542;2023-04-24T01:00:52;7.70;;;2.90;;
70951;SDS011;69214;55.880;37.542;2023-04-24T01:03:19;7.65;;;2.88;;
70951;SDS011;69214;55.880;37.542;2023-04-24T01:05:48;7.97;;;2.70;;
70951;SDS011;69214;55.880;37.542;2023-04-24T01:08:14;9.68;;;2.67;;
70951;SDS011;69214;55.880;37.542;2023-04-24T01:10:40;7.90;;;2.60;;
70951;SDS011;69214;55.880;37.542;2023-04-24T01:13:07;7.70;;;2.67;;
70951;SDS011;69214;55.880;37.542;2023-04-24T01:15:34;7.80;;;2.58;;
70951;SDS011;69214;55.880;37.542;2023-04-24T01:18:00;10.10;;;2.90;;
70951;SDS011;69214;55.880;37.542;2023-04-24T01:20:26;6.97;;;2.80;;
70951;SDS011;69214;55.880;37.542;2023-04-24T01:22:52;7.80;;;3.00;;
70951;SDS011;69214;55.880;37.542;2023-04-24T01:25:22;8.75;;;3.05;;
70951;SDS011;69214;55.880;37.542;2023-04-24T01:27:48;7.38;;;3.28;;
70951;SDS011;69214;55.880;37.542;2023-04-24T01:30:14;7.30;;;3.07;;
70951;SDS011;69214;55.880;37.542;2023-04-24T01:32:40;9.82;;;3.35;;
70951;SDS011;69214;55.880;37.542;2023-04-24T01:35:09;8.82;;;3.65;;
70951;SDS011;69214;55.880;37.542;2023-04-24T01:37:35;11.33;;;3.20;;
70951;SDS011;69214;55.880;37.542;2023-04-24T01:40:03;7.43;;;3.35;;
70951;SDS011;69214;55.880;37.542;2023-04-24T01:42:30;7.97;;;3.45;;
70951;SDS011;69214;55.880;37.542;2023-04-24T01:44:56;8.65;;;3.17;;
70951;SDS011;69214;55.880;37.542;2023-04-24T01:47:22;7.10;;;3.30;;
70951;SDS011;69214;55.880;37.542;2023-04-24T01:49:49;9.53;;;3.90;;
70951;SDS011;69214;55.880;37.542;2023-04-24T01:52:16;9.30;;;3.45;;
70951;SDS011;69214;55.880;37.542;2023-04-24T01:54:44;10.32;;;3.90;;
70951;SDS011;69214;55.880;37.542;2023-04-24T01:57:10;10.30;;;3.75;;
70951;SDS011;69214;55.880;37.542;2023-04-24T01:59:35;8.60;;;3.50;;
70951;SDS011;69214;55.880;37.542;2023-04-24T02:02:02;10.98;;;3.67;;
70951;SDS011;69214;55.880;37.542;2023-04-24T02:04:29;8.10;;;3.65;;
70951;SDS011;69214;55.880;37.542;2023-04-24T02:06:56;9.32;;;3.55;;
70951;SDS011;69214;55.880;37.542;2023-04-24T02:09:23;10.27;;;4.00;;
70951;SDS011;69214;55.880;37.542;2023-04-24T02:11:50;8.45;;;3.55;;
70951;SDS011;69214;55.880;37.542;2023-04-24T02:14:17;12.02;;;3.67;;
70951;SDS011;69214;55.880;37.542;2023-04-24T02:16:43;15.02;;;3.97;;
70951;SDS011;69214;55.880;37.542;2023-04-24T02:19:09;8.63;;;3.93;;
70951;SDS011;69214;55.880;37.542;2023-04-24T02:21:35;11.48;;;4.15;;
70951;SDS011;69214;55.880;37.542;2023-04-24T02:24:01;8.15;;;3.55;;
70951;SDS011;69214;55.880;37.542;2023-04-24T02:26:27;9.32;;;3.90;;
70951;SDS011;69214;55.880;37.542;2023-04-24T02:28:53;11.67;;;4.80;;
70951;SDS011;69214;55.880;37.542;2023-04-24T02:31:19;9.27;;;3.90;;
70951;SDS011;69214;55.880;37.542;2023-04-24T02:33:47;8.32;;;3.35;;
70951;SDS011;69214;55.880;37.542;2023-04-24T02:36:13;10.93;;;4.35;;
70951;SDS011;69214;55.880;37.542;2023-04-24T02:38:39;10.20;;;4.23;;
70951;SDS011;69214;55.880;37.542;2023-04-24T02:41:05;9.95;;;4.30;;
70951;SDS011;69214;55.880;37.542;2023-04-24T02:43:31;10.88;;;3.63;;
70951;SDS011;69214;55.880;37.542;2023-04-24T02:45:59;13.23;;;4.68;;
70951;SDS011;69214;55.880;37.542;2023-04-24T02:48:25;10.77;;;4.23;;
70951;SDS011;69214;55.880;37.542;2023-04-24T02:50:51;10.07;;;4.28;;
70951;SDS011;69214;55.880;37.542;2023-04-24T02:53:17;11.45;;;4.40;;
70951;SDS011;69214;55.880;37.542;2023-04-24T02:55:42;14.03;;;4.90;;
70951;SDS011;69214;55.880;37.542;2023-04-24T02:58:08;9.93;;;4.78;;
70951;SDS011;69214;55.880;37.542;2023-04-24T03:00:34;11.43;;;5.13;;
70951;SDS011;69214;55.880;37.542;2023-04-24T03:03:00;11.30;;;4.60;;
70951;SDS011;69214;55.880;37.542;2023-04-24T03:05:26;10.00;;;4.45;;
70951;SDS011;69214;55.880;37.542;2023-04-24T03:07:52;12.77;;;4.32;;
70951;SDS011;69214;55.880;37.542;2023-04-24T03:10:20;8.48;;;3.90;;
70951;SDS011;69214;55.880;37.542;2023-04-24T03:12:49;10.30;;;3.87;;
70951;SDS011;69214;55.880;37.542;2023-04-24T03:15:17;8.80;;;4.00;;
70951;SDS011;69214;55.880;37.542;2023-04-24T03:17:42;10.48;;;4.18;;
70951;SDS011;69214;55.880;37.542;2023-04-24T03:20:08;11.70;;;4.17;;
70951;SDS011;69214;55.880;37.542;2023-04-24T03:22:35;9.10;;;3.65;;
70951;SDS011;69214;55.880;37.542;2023-04-24T03:25:04;8.40;;;3.85;;
70951;SDS011;69214;55.880;37.542;2023-04-24T03:27:30;7.50;;;3.47;;
70951;SDS011;69214;55.880;37.542;2023-04-24T03:30:03;10.60;;;4.65;;
70951;SDS011;69214;55.880;37.542;2023-04-24T03:32:41;10.33;;;4.50;;
70951;SDS011;69214;55.880;37.542;2023-04-24T03:35:10;10.25;;;4.60;;
70951;SDS011;69214;55.880;37.542;2023-04-24T03:37:36;10.40;;;4.70;;
70951;SDS011;69214;55.880;37.542;2023-04-24T03:40:24;10.55;;;4.43;;
70951;SDS011;69214;55.880;37.542;2023-04-24T03:42:50;10.98;;;4.15;;
70951;SDS011;69214;55.880;37.542;2023-04-24T03:45:16;10.37;;;4.33;;
70951;SDS011;69214;55.880;37.542;2023-04-24T03:47:46;9.18;;;4.22;;
70951;SDS011;69214;55.880;37.542;2023-04-24T03:50:12;7.70;;;3.75;;
70951;SDS011;69214;55.880;37.542;2023-04-24T03:52:38;9.70;;;3.73;;
70951;SDS011;69214;55.880;37.542;2023-04-24T03:55:04;7.35;;;3.80;;
70951;SDS011;69214;55.880;37.542;2023-04-24T03:57:36;6.57;;;3.10;;
70951;SDS011;69214;55.880;37.542;2023-04-24T04:00:11;8.45;;;3.72;;
70951;SDS011;69214;55.880;37.542;2023-04-24T04:02:40;8.27;;;3.30;;
70951;SDS011;69214;55.880;37.542;2023-04-24T04:05:07;7.17;;;3.53;;
70951;SDS011;69214;55.880;37.542;2023-04-24T04:07:33;6.38;;;3.58;;
70951;SDS011;69214;55.880;37.542;2023-04-24T04:09:59;7.18;;;2.95;;
70951;SDS011;69214;55.880;37.542;2023-04-24T04:12:25;9.27;;;3.42;;
70951;SDS011;69214;55.880;37.542;2023-04-24T04:14:51;7.57;;;3.63;;
70951;SDS011;69214;55.880;37.542;2023-04-24T04:17:17;6.63;;;3.40;;
70951;SDS011;69214;55.880;37.542;2023-04-24T04:19:43;9.57;;;3.50;;
70951;SDS011;69214;55.880;37.542;2023-04-24T04:22:09;6.73;;;3.73;;
70951;SDS011;69214;55.880;37.542;2023-04-24T04:24:44;7.60;;;3.28;;
70951;SDS011;69214;55.880;37.542;2023-04-24T04:27:10;8.73;;;3.85;;
70951;SDS011;69214;55.880;37.542;2023-04-24T04:29:49;6.78;;;3.55;;
70951;SDS011;69214;55.880;37.542;2023-04-24T04:32:16;7.28;;;4.10;;
70951;SDS011;69214;55.880;37.542;2023-04-24T04:34:42;8.90;;;3.97;;
70951;SDS011;69214;55.880;37.542;2023-04-24T04:37:10;7.50;;;3.35;;
70951;SDS011;69214;55.880;37.542;2023-04-24T04:39:51;7.43;;;3.47;;
70951;SDS011;69214;55.880;37.542;2023-04-24T04:42:22;8.15;;;3.92;;
70951;SDS011;69214;55.880;37.542;2023-04-24T04:44:49;6.90;;;3.53;;
70951;SDS011;69214;55.880;37.542;2023-04-24T04:47:19;6.68;;;3.58;;
70951;SDS011;69214;55.880;37.542;2023-04-24T04:49:50;7.57;;;3.97;;
70951;SDS011;69214;55.880;37.542;2023-04-24T04:52:22;7.60;;;4.50;;
70951;SDS011;69214;55.880;37.542;2023-04-24T04:54:55;7.25;;;4.00;;
70951;SDS011;69214;55.880;37.542;2023-04-24T04:57:24;6.67;;;4.20;;
70951;SDS011;69214;55.880;37.542;2023-04-24T04:59:50;6.40;;;4.47;;
70951;SDS011;69214;55.880;37.542;2023-04-24T05:02:29;7.88;;;4.75;;
70951;SDS011;69214;55.880;37.542;2023-04-24T05:04:55;7.05;;;4.40;;
70951;SDS011;69214;55.880;37.542;2023-04-24T05:07:21;6.93;;;5.20;;
70951;SDS011;69214;55.880;37.542;2023-04-24T05:09:50;7.22;;;4.47;;
70951;SDS011;69214;55.880;37.542;2023-04-24T05:12:16;7.55;;;4.97;;
70951;SDS011;69214;55.880;37.542;2023-04-24T05:14:49;6.38;;;5.03;;
70951;SDS011;69214;55.880;37.542;2023-04-24T05:17:15;7.57;;;4.57;;
70951;SDS011;69214;55.880;37.542;2023-04-24T05:19:42;6.72;;;5.07;;
70951;SDS011;69214;55.880;37.542;2023-04-24T05:22:08;7.82;;;5.18;;
70951;SDS011;69214;55.880;37.542;2023-04-24T05:24:43;6.90;;;5.07;;
70951;SDS011;69214;55.880;37.542;2023-04-24T05:27:47;8.40;;;5.10;;
70951;SDS011;69214;55.880;37.542;2023-04-24T05:30:15;6.57;;;4.97;;
70951;SDS011;69214;55.880;37.542;2023-04-24T05:32:41;7.22;;;4.82;;
70951;SDS011;69214;55.880;37.542;2023-04-24T05:35:06;7.78;;;5.13;;
70951;SDS011;69214;55.880;37.542;2023-04-24T05:37:33;7.90;;;5.65;;
70951;SDS011;69214;55.880;37.542;2023-04-24T05:39:59;5.83;;;4.53;;
70951;SDS011;69214;55.880;37.542;2023-04-24T05:42:25;6.60;;;5.28;;
70951;SDS011;69214;55.880;37.542;2023-04-24T05:44:51;7.95;;;5.20;;
70951;SDS011;69214;55.880;37.542;2023-04-24T05:47:16;5.97;;;4.93;;
70951;SDS011;69214;55.880;37.542;2023-04-24T05:49:42;7.03;;;5.00;;
70951;SDS011;69214;55.880;37.542;2023-04-24T05:52:08;6.27;;;4.90;;
70951;SDS011;69214;55.880;37.542;2023-04-24T05:54:35;8.60;;;5.40;;
70951;SDS011;69214;55.880;37.542;2023-04-24T05:57:02;7.95;;;5.03;;
70951;SDS011;69214;55.880;37.542;2023-04-24T05:59:44;5.70;;;5.03;;
70951;SDS011;69214;55.880;37.542;2023-04-24T06:02:11;7.40;;;5.10;;
70951;SDS011;69214;55.880;37.542;2023-04-24T06:04:37;7.83;;;5.20;;
70951;SDS011;69214;55.880;37.542;2023-04-24T06:07:02;7.85;;;5.18;;
70951;SDS011;69214;55.880;37.542;2023-04-24T06:09:28;7.73;;;5.33;;
70951;SDS011;69214;55.880;37.542;2023-04-24T06:11:54;7.15;;;5.30;;
70951;SDS011;69214;55.880;37.542;2023-04-24T06:14:23;6.55;;;5.20;;
70951;SDS011;69214;55.880;37.542;2023-04-24T06:17:12;7.90;;;4.90;;
70951;SDS011;69214;55.880;37.542;2023-04-24T06:19:39;10.07;;;5.15;;
70951;SDS011;69214;55.880;37.542;2023-04-24T06:22:06;6.75;;;5.38;;
70951;SDS011;69214;55.880;37.542;2023-04-24T06:24:31;5.47;;;4.70;;
70951;SDS011;69214;55.880;37.542;2023-04-24T06:26:59;7.27;;;5.70;;
70951;SDS011;69214;55.880;37.542;2023-04-24T06:29:26;8.00;;;4.95;;
70951;SDS011;69214;55.880;37.542;2023-04-24T06:31:52;8.63;;;5.32;;
70951;SDS011;69214;55.880;37.542;2023-04-24T06:34:18;10.85;;;6.38;;
70951;SDS011;69214;55.880;37.542;2023-04-24T06:36:46;6.70;;;5.57;;
70951;SDS011;69214;55.880;37.542;2023-04-24T06:39:12;7.13;;;5.80;;
70951;SDS011;69214;55.880;37.542;2023-04-24T06:41:38;7.97;;;7.18;;
70951;SDS011;69214;55.880;37.542;2023-04-24T06:44:05;8.45;;;6.88;;
70951;SDS011;69214;55.880;37.542;2023-04-24T06:46:31;11.67;;;7.03;;
70951;SDS011;69214;55.880;37.542;2023-04-24T06:48:56;9.65;;;6.50;;
70951;SDS011;69214;55.880;37.542;2023-04-24T06:51:23;10.00;;;6.35;;
70951;SDS011;69214;55.880;37.542;2023-04-24T06:53:49;8.07;;;7.20;;
70951;SDS011;69214;55.880;37.542;2023-04-24T06:56:15;8.40;;;7.15;;
70951;SDS011;69214;55.880;37.542;2023-04-24T06:58:41;8.70;;;7.47;;
70951;SDS011;69214;55.880;37.542;2023-04-24T07:01:07;8.00;;;7.18;;
70951;SDS011;69214;55.880;37.542;2023-04-24T07:03:33;7.43;;;6.63;;
70951;SDS011;69214;55.880;37.542;2023-04-24T07:05:58;9.27;;;7.03;;
70951;SDS011;69214;55.880;37.542;2023-04-24T07:08:24;7.40;;;6.80;;
70951;SDS011;69214;55.880;37.542;2023-04-24T07:10:50;8.40;;;6.93;;
70951;SDS011;69214;55.880;37.542;2023-04-24T07:13:16;6.82;;;6.22;;
70951;SDS011;69214;55.880;37.542;2023-04-24T07:15:42;7.85;;;6.25;;
70951;SDS011;69214;55.880;37.542;2023-04-24T07:18:08;7.20;;;5.57;;
70951;SDS011;69214;55.880;37.542;2023-04-24T07:20:34;6.53;;;5.63;;
70951;SDS011;69214;55.880;37.542;2023-04-24T07:23:00;7.25;;;5.38;;
70951;SDS011;69214;55.880;37.542;2023-04-24T07:25:26;9.50;;;5.75;;
70951;SDS011;69214;55.880;37.542;2023-04-24T07:27:52;6.33;;;5.50;;
70951;SDS011;69214;55.880;37.542;2023-04-24T07:30:18;7.45;;;5.65;;
70951;SDS011;69214;55.880;37.542;2023-04-24T07:32:44;6.80;;;6.20;;
70951;SDS011;69214;55.880;37.542;2023-04-24T07:35:09;6.05;;;4.78;;
70951;SDS011;69214;55.880;37.542;2023-04-24T07:37:35;6.03;;;4.67;;
70951;SDS011;69214;55.880;37.542;2023-04-24T07:40:01;7.23;;;4.63;;
70951;SDS011;69214;55.880;37.542;2023-04-24T07:42:28;7.85;;;4.90;;
70951;SDS011;69214;55.880;37.542;2023-04-24T07:44:55;6.63;;;4.82;;
70951;SDS011;69214;55.880;37.542;2023-04-24T07:47:21;7.13;;;4.97;;
70951;SDS011;69214;55.880;37.542;2023-04-24T07:49:47;5.63;;;4.30;;
70951;SDS011;69214;55.880;37.542;2023-04-24T07:52:13;5.43;;;4.30;;
70951;SDS011;69214;55.880;37.542;2023-04-24T07:54:39;4.97;;;4.15;;
70951;SDS011;69214;55.880;37.542;2023-04-24T07:57:05;5.03;;;4.17;;
70951;SDS011;69214;55.880;37.542;2023-04-24T07:59:33;4.80;;;4.10;;
70951;SDS011;69214;55.880;37.542;2023-04-24T08:01:59;5.05;;;3.85;;
70951;SDS011;69214;55.880;37.542;2023-04-24T08:04:26;6.50;;;4.10;;
70951;SDS011;69214;55.880;37.542;2023-04-24T08:06:52;5.60;;;2.87;;
70951;SDS011;69214;55.880;37.542;2023-04-24T08:09:18;5.10;;;3.17;;
70951;SDS011;69214;55.880;37.542;2023-04-24T08:11:44;5.33;;;2.77;;
70951;SDS011;69214;55.880;37.542;2023-04-24T08:14:09;4.07;;;2.90;;
70951;SDS011;69214;55.880;37.542;2023-04-24T08:16:37;4.10;;;2.63;;
70951;SDS011;69214;55.880;37.542;2023-04-24T08:19:03;5.43;;;2.53;;
70951;SDS011;69214;55.880;37.542;2023-04-24T08:21:29;5.63;;;2.47;;
70951;SDS011;69214;55.880;37.542;2023-04-24T08:23:55;6.03;;;2.08;;
70951;SDS011;69214;55.880;37.542;2023-04-24T08:26:20;5.03;;;2.40;;
70951;SDS011;69214;55.880;37.542;2023-04-24T08:28:46;4.47;;;2.35;;
70951;SDS011;69214;55.880;37.542;2023-04-24T08:31:12;5.53;;;2.07;;
70951;SDS011;69214;55.880;37.542;2023-04-24T08:33:38;5.07;;;1.80;;
70951;SDS011;69214;55.880;37.542;2023-04-24T08:36:04;5.87;;;1.97;;
70951;SDS011;69214;55.880;37.542;2023-04-24T08:38:30;3.58;;;1.65;;
70951;SDS011;69214;55.880;37.542;2023-04-24T08:40:58;6.18;;;1.90;;
70951;SDS011;69214;55.880;37.542;2023-04-24T08:43:24;4.45;;;1.90;;
70951;SDS011;69214;55.880;37.542;2023-04-24T08:45:51;4.28;;;1.63;;
70951;SDS011;69214;55.880;37.542;2023-04-24T08:48:18;4.10;;;2.00;;
70951;SDS011;69214;55.880;37.542;2023-04-24T08:50:43;4.70;;;1.80;;
70951;SDS011;69214;55.880;37.542;2023-04-24T08:53:10;4.75;;;2.00;;
70951;SDS011;69214;55.880;37.542;2023-04-24T08:55:39;3.72;;;1.58;;
70951;SDS011;69214;55.880;37.542;2023-04-24T08:58:08;3.83;;;1.58;;
70951;SDS011;69214;55.880;37.542;2023-04-24T09:00:35;4.18;;;1.85;;
70951;SDS011;69214;55.880;37.542;2023-04-24T09:03:01;4.30;;;1.43;;
70951;SDS011;69214;55.880;37.542;2023-04-24T09:05:30;4.93;;;1.80;;
70951;SDS011;69214;55.880;37.542;2023-04-24T09:07:56;5.60;;;1.60;;
70951;SDS011;69214;55.880;37.542;2023-04-24T09:10:23;3.67;;;1.60;;
70951;SDS011;69214;55.880;37.542;2023-04-24T09:12:50;5.47;;;1.50;;
70951;SDS011;69214;55.880;37.542;2023-04-24T09:15:20;3.95;;;1.60;;
70951;SDS011;69214;55.880;37.542;2023-04-24T09:17:46;5.25;;;1.83;;
70951;SDS011;69214;55.880;37.542;2023-04-24T09:20:12;6.60;;;1.30;;
70951;SDS011;69214;55.880;37.542;2023-04-24T09:22:38;4.67;;;1.70;;
70951;SDS011;69214;55.880;37.542;2023-04-24T09:25:05;3.58;;;1.25;;
70951;SDS011;69214;55.880;37.542;2023-04-24T09:27:34;5.72;;;2.05;;
70951;SDS011;69214;55.880;37.542;2023-04-24T09:30:01;7.30;;;1.70;;
70951;SDS011;69214;55.880;37.542;2023-04-24T09:32:28;6.38;;;1.42;;
70951;SDS011;69214;55.880;37.542;2023-04-24T09:35:05;4.07;;;1.40;;
70951;SDS011;69214;55.880;37.542;2023-04-24T09:37:36;4.20;;;1.50;;
70951;SDS011;69214;55.880;37.542;2023-04-24T09:42:40;4.15;;;1.40;;
70951;SDS011;69214;55.880;37.542;2023-04-24T09:45:10;3.28;;;1.48;;
70951;SDS011;69214;55.880;37.542;2023-04-24T09:47:38;3.80;;;1.40;;
70951;SDS011;69214;55.880;37.542;2023-04-24T09:50:11;3.97;;;1.50;;
70951;SDS011;69214;55.880;37.542;2023-04-24T09:52:42;4.47;;;1.85;;
70951;SDS011;69214;55.880;37.542;2023-04-24T09:55:13;7.38;;;1.83;;
70951;SDS011;69214;55.880;37.542;2023-04-24T09:57:53;4.28;;;1.88;;
70951;SDS011;69214;55.880;37.542;2023-04-24T10:03:00;3.93;;;1.27;;
70951;SDS011;69214;55.880;37.542;2023-04-24T10:05:28;4.82;;;1.48;;
70951;SDS011;69214;55.880;37.542;2023-04-24T10:07:57;6.65;;;1.58;;
70951;SDS011;69214;55.880;37.542;2023-04-24T10:10:26;3.78;;;1.52;;
70951;SDS011;69214;55.880;37.542;2023-04-24T10:12:52;5.88;;;1.58;;
70951;SDS011;69214;55.880;37.542;2023-04-24T10:15:18;5.73;;;1.60;;
70951;SDS011;69214;55.880;37.542;2023-04-24T10:17:47;3.83;;;1.55;;
70951;SDS011;69214;55.880;37.542;2023-04-24T10:20:21;3.92;;;1.60;;
70951;SDS011;69214;55.880;37.542;2023-04-24T10:22:49;4.70;;;1.40;;
70951;SDS011;69214;55.880;37.542;2023-04-24T10:25:49;4.40;;;1.50;;
70951;SDS011;69214;55.880;37.542;2023-04-24T10:28:08;4.43;;;1.60;;
70951;SDS011;69214;55.880;37.542;2023-04-24T10:30:35;3.80;;;1.42;;
70951;SDS011;69214;55.880;37.542;2023-04-24T10:33:02;4.10;;;1.48;;
70951;SDS011;69214;55.880;37.542;2023-04-24T10:35:32;3.65;;;1.52;;
70951;SDS011;69214;55.880;37.542;2023-04-24T10:38:13;4.77;;;1.43;;
70951;SDS011;69214;55.880;37.542;2023-04-24T10:40:42;4.22;;;1.50;;
70951;SDS011;69214;55.880;37.542;2023-04-24T10:43:09;5.30;;;1.42;;
70951;SDS011;69214;55.880;37.542;2023-04-24T10:45:36;3.65;;;1.40;;
70951;SDS011;69214;55.880;37.542;2023-04-24T10:48:04;3.58;;;1.48;;
70951;SDS011;69214;55.880;37.542;2023-04-24T10:50:43;5.23;;;1.33;;
70951;SDS011;69214;55.880;37.542;2023-04-24T10:53:17;5.32;;;1.40;;
70951;SDS011;69214;55.880;37.542;2023-04-24T10:55:56;4.45;;;1.33;;
70951;SDS011;69214;55.880;37.542;2023-04-24T10:58:24;5.65;;;1.42;;
70951;SDS011;69214;55.880;37.542;2023-04-24T11:01:02;4.90;;;1.42;;
70951;SDS011;69214;55.880;37.542;2023-04-24T11:03:29;4.10;;;1.30;;
70951;SDS011;69214;55.880;37.542;2023-04-24T11:05:57;5.22;;;1.70;;
70951;SDS011;69214;55.880;37.542;2023-04-24T11:13:27;2.85;;;1.10;;
70951;SDS011;69214;55.880;37.542;2023-04-24T11:18:52;3.53;;;1.13;;
70951;SDS011;69214;55.880;37.542;2023-04-24T11:21:25;4.78;;;1.38;;
70951;SDS011;69214;55.880;37.542;2023-04-24T11:23:57;2.63;;;1.13;;
70951;SDS011;69214;55.880;37.542;2023-04-24T11:26:23;4.93;;;1.20;;
70951;SDS011;69214;55.880;37.542;2023-04-24T11:29:06;3.55;;;1.38;;
70951;SDS011;69214;55.880;37.542;2023-04-24T11:31:36;4.10;;;1.30;;
70951;SDS011;69214;55.880;37.542;2023-04-24T11:34:13;5.57;;;1.45;;
70951;SDS011;69214;55.880;37.542;2023-04-24T11:36:40;5.82;;;1.15;;
70951;SDS011;69214;55.880;37.542;2023-04-24T11:39:08;3.40;;;1.33;;
70951;SDS011;69214;55.880;37.542;2023-04-24T11:41:35;6.00;;;2.20;;
70951;SDS011;69214;55.880;37.542;2023-04-24T11:44:01;5.53;;;1.40;;
70951;SDS011;69214;55.880;37.542;2023-04-24T11:46:31;5.40;;;1.50;;
70951;SDS011;69214;55.880;37.542;2023-04-24T11:48:57;5.80;;;1.20;;
70951;SDS011;69214;55.880;37.542;2023-04-24T11:51:25;4.20;;;1.50;;
70951;SDS011;69214;55.880;37.542;2023-04-24T11:53:52;4.28;;;1.35;;
70951;SDS011;69214;55.880;37.542;2023-04-24T11:56:19;3.65;;;1.65;;
70951;SDS011;69214;55.880;37.542;2023-04-24T11:58:47;2.92;;;1.10;;
70951;SDS011;69214;55.880;37.542;2023-04-24T12:01:13;5.55;;;1.33;;
70951;SDS011;69214;55.880;37.542;2023-04-24T12:03:39;6.43;;;1.10;;
70951;SDS011;69214;55.880;37.542;2023-04-24T12:06:10;4.55;;;1.52;;
70951;SDS011;69214;55.880;37.542;2023-04-24T12:08:37;4.45;;;1.20;;
70951;SDS011;69214;55.880;37.542;2023-04-24T12:11:03;4.38;;;1.23;;
70951;SDS011;69214;55.880;37.542;2023-04-24T12:13:32;3.35;;;1.20;;
70951;SDS011;69214;55.880;37.542;2023-04-24T12:15:59;3.33;;;1.10;;
70951;SDS011;69214;55.880;37.542;2023-04-24T12:18:25;3.10;;;1.20;;
70951;SDS011;69214;55.880;37.542;2023-04-24T12:20:51;4.43;;;1.17;;
70951;SDS011;69214;55.880;37.542;2023-04-24T12:23:32;3.35;;;1.13;;
70951;SDS011;69214;55.880;37.542;2023-04-24T12:26:00;7.88;;;1.20;;
70951;SDS011;69214;55.880;37.542;2023-04-24T12:28:34;4.80;;;1.30;;
70951;SDS011;69214;55.880;37.542;2023-04-24T12:31:01;3.28;;;1.10;;
70951;SDS011;69214;55.880;37.542;2023-04-24T12:33:27;4.90;;;1.25;;
70951;SDS011;69214;55.880;37.542;2023-04-24T12:35:53;3.22;;;1.00;;
70951;SDS011;69214;55.880;37.542;2023-04-24T12:38:23;3.43;;;1.17;;
70951;SDS011;69214;55.880;37.542;2023-04-24T12:41:04;4.03;;;1.20;;
70951;SDS011;69214;55.880;37.542;2023-04-24T12:43:35;3.10;;;1.00;;
70951;SDS011;69214;55.880;37.542;2023-04-24T12:46:01;4.15;;;1.20;;
70951;SDS011;69214;55.880;37.542;2023-04-24T12:48:28;4.35;;;1.13;;
70951;SDS011;69214;55.880;37.542;2023-04-24T12:50:54;3.93;;;1.30;;
70951;SDS011;69214;55.880;37.542;2023-04-24T12:53:22;4.30;;;1.02;;
70951;SDS011;69214;55.880;37.542;2023-04-24T12:55:48;2.83;;;1.10;;
70951;SDS011;69214;55.880;37.542;2023-04-24T12:58:19;2.97;;;1.15;;
70951;SDS011;69214;55.880;37.542;2023-04-24T13:00:45;3.50;;;1.00;;
70951;SDS011;69214;55.880;37.542;2023-04-24T13:03:12;4.15;;;1.30;;
70951;SDS011;69214;55.880;37.542;2023-04-24T13:05:38;4.03;;;1.23;;
70951;SDS011;69214;55.880;37.542;2023-04-24T13:08:04;3.50;;;1.10;;
70951;SDS011;69214;55.880;37.542;2023-04-24T13:10:29;4.17;;;1.10;;
70951;SDS011;69214;55.880;37.542;2023-04-24T13:12:55;4.10;;;1.30;;
70951;SDS011;69214;55.880;37.542;2023-04-24T13:15:22;4.28;;;1.20;;
70951;SDS011;69214;55.880;37.542;2023-04-24T13:17:48;3.20;;;0.93;;
70951;SDS011;69214;55.880;37.542;2023-04-24T13:20:13;3.73;;;1.30;;
70951;SDS011;69214;55.880;37.542;2023-04-24T13:22:39;3.47;;;1.02;;
70951;SDS011;69214;55.880;37.542;2023-04-24T13:25:05;4.73;;;1.17;;
70951;SDS011;69214;55.880;37.542;2023-04-24T13:27:32;3.58;;;1.40;;
70951;SDS011;69214;55.880;37.542;2023-04-24T13:29:58;3.60;;;1.00;;
70951;SDS011;69214;55.880;37.542;2023-04-24T13:32:23;3.27;;;1.00;;
70951;SDS011;69214;55.880;37.542;2023-04-24T13:34:50;4.03;;;1.02;;
70951;SDS011;69214;55.880;37.542;2023-04-24T13:37:16;4.60;;;1.10;;
70951;SDS011;69214;55.880;37.542;2023-04-24T13:39:41;3.67;;;0.90;;
70951;SDS011;69214;55.880;37.542;2023-04-24T13:42:08;2.97;;;1.20;;
70951;SDS011;69214;55.880;37.542;2023-04-24T13:44:33;3.65;;;1.10;;
70951;SDS011;69214;55.880;37.542;2023-04-24T13:46:59;3.83;;;1.10;;
70951;SDS011;69214;55.880;37.542;2023-04-24T13:49:25;3.05;;;1.25;;
70951;SDS011;69214;55.880;37.542;2023-04-24T13:51:52;3.40;;;1.20;;
70951;SDS011;69214;55.880;37.542;2023-04-24T13:54:18;2.92;;;1.05;;
70951;SDS011;69214;55.880;37.542;2023-04-24T13:56:44;4.80;;;1.40;;
70951;SDS011;69214;55.880;37.542;2023-04-24T13:59:11;4.07;;;1.08;;
70951;SDS011;69214;55.880;37.542;2023-04-24T14:01:37;5.07;;;1.17;;
70951;SDS011;69214;55.880;37.542;2023-04-24T14:04:04;4.45;;;1.10;;
70951;SDS011;69214;55.880;37.542;2023-04-24T14:06:31;2.43;;;0.80;;
70951;SDS011;69214;55.880;37.542;2023-04-24T14:08:57;2.63;;;1.00;;
70951;SDS011;69214;55.880;37.542;2023-04-24T14:11:22;3.78;;;1.05;;
70951;SDS011;69214;55.880;37.542;2023-04-24T14:13:49;3.43;;;1.13;;
70951;SDS011;69214;55.880;37.542;2023-04-24T14:16:16;2.43;;;0.87;;
70951;SDS011;69214;55.880;37.542;2023-04-24T14:18:42;3.25;;;1.10;;
70951;SDS011;69214;55.880;37.542;2023-04-24T14:21:07;4.07;;;1.07;;
70951;SDS011;69214;55.880;37.542;2023-04-24T14:23:33;3.33;;;1.17;;
70951;SDS011;69214;55.880;37.542;2023-04-24T14:25:59;6.55;;;0.80;;
70951;SDS011;69214;55.880;37.542;2023-04-24T14:28:25;3.20;;;1.00;;
70951;SDS011;69214;55.880;37.542;2023-04-24T14:30:51;3.85;;;0.95;;
70951;SDS011;69214;55.880;37.542;2023-04-24T14:33:17;2.80;;;1.00;;
70951;SDS011;69214;55.880;37.542;2023-04-24T14:35:44;3.70;;;1.15;;
70951;SDS011;69214;55.880;37.542;2023-04-24T14:38:09;4.03;;;1.33;;
70951;SDS011;69214;55.880;37.542;2023-04-24T14:40:38;3.30;;;1.27;;
70951;SDS011;69214;55.880;37.542;2023-04-24T14:43:04;4.80;;;1.20;;
70951;SDS011;69214;55.880;37.542;2023-04-24T14:45:30;3.87;;;1.30;;
70951;SDS011;69214;55.880;37.542;2023-04-24T14:47:56;3.33;;;1.10;;
70951;SDS011;69214;55.880;37.542;2023-04-24T14:50:22;2.95;;;1.10;;